sensor_id;sensor_type;location;lat;lon;timestamp;P1;durP1;ratioP1;P2;durP2;ratioP2
50379;SDS011;37474;59.468;18.040;2022-08-19T00:02:06;47.17;;;25.35;;
50379;SDS011;37474;59.468;18.040;2022-08-19T00:04:34;51.75;;;26.90;;
50379;SDS011;37474;59.468;18.040;2022-08-19T00:07:05;53.03;;;26.65;;
50379;SDS011;37474;59.468;18.040;2022-08-19T00:09:35;52.30;;;26.27;;
50379;SDS011;37474;59.468;18.040;2022-08-19T00:12:05;56.33;;;27.85;;
50379;SDS011;37474;59.468;18.040;2022-08-19T00:14:36;57.15;;;28.50;;
50379;SDS011;37474;59.468;18.040;2022-08-19T00:17:05;59.22;;;28.10;;
50379;SDS011;37474;59.468;18.040;2022-08-19T00:19:37;64.28;;;29.52;;
50379;SDS011;37474;59.468;18.040;2022-08-19T00:22:06;60.13;;;27.65;;
50379;SDS011;37474;59.468;18.040;2022-08-19T00:24:36;77.50;;;31.15;;
50379;SDS011;37474;59.468;18.040;2022-08-19T00:27:07;70.22;;;31.95;;
50379;SDS011;37474;59.468;18.040;2022-08-19T00:29:52;54.88;;;28.95;;
50379;SDS011;37474;59.468;18.040;2022-08-19T00:34:52;58.72;;;29.48;;
50379;SDS011;37474;59.468;18.040;2022-08-19T00:37:23;60.70;;;32.15;;
50379;SDS011;37474;59.468;18.040;2022-08-19T00:39:55;64.35;;;32.50;;
50379;SDS011;37474;59.468;18.040;2022-08-19T00:42:23;73.30;;;34.00;;
50379;SDS011;37474;59.468;18.040;2022-08-19T00:44:57;65.90;;;33.85;;
50379;SDS011;37474;59.468;18.040;2022-08-19T00:47:25;65.30;;;33.80;;
50379;SDS011;37474;59.468;18.040;2022-08-19T00:49:56;67.60;;;34.60;;
50379;SDS011;37474;59.468;18.040;2022-08-19T00:52:30;71.78;;;35.45;;
50379;SDS011;37474;59.468;18.040;2022-08-19T00:55:03;68.93;;;36.65;;
50379;SDS011;37474;59.468;18.040;2022-08-19T00:57:38;58.40;;;33.92;;
50379;SDS011;37474;59.468;18.040;2022-08-19T01:00:12;65.32;;;35.33;;
50379;SDS011;37474;59.468;18.040;2022-08-19T01:02:47;58.60;;;33.85;;
50379;SDS011;37474;59.468;18.040;2022-08-19T01:05:16;64.93;;;36.80;;
50379;SDS011;37474;59.468;18.040;2022-08-19T01:07:50;66.93;;;37.28;;
50379;SDS011;37474;59.468;18.040;2022-08-19T01:10:21;59.83;;;35.10;;
50379;SDS011;37474;59.468;18.040;2022-08-19T01:12:55;67.07;;;37.53;;
50379;SDS011;37474;59.468;18.040;2022-08-19T01:15:26;64.95;;;37.72;;
50379;SDS011;37474;59.468;18.040;2022-08-19T01:18:01;59.20;;;36.40;;
50379;SDS011;37474;59.468;18.040;2022-08-19T01:20:32;61.22;;;34.42;;
50379;SDS011;37474;59.468;18.040;2022-08-19T01:23:02;57.83;;;35.80;;
50379;SDS011;37474;59.468;18.040;2022-08-19T01:25:34;59.08;;;35.55;;
50379;SDS011;37474;59.468;18.040;2022-08-19T01:28:17;62.97;;;37.42;;
50379;SDS011;37474;59.468;18.040;2022-08-19T01:30:59;61.33;;;37.67;;
50379;SDS011;37474;59.468;18.040;2022-08-19T01:33:35;56.85;;;36.67;;
50379;SDS011;37474;59.468;18.040;2022-08-19T01:36:04;59.17;;;36.45;;
50379;SDS011;37474;59.468;18.040;2022-08-19T01:38:36;60.33;;;38.03;;
50379;SDS011;37474;59.468;18.040;2022-08-19T01:41:10;59.90;;;36.85;;
50379;SDS011;37474;59.468;18.040;2022-08-19T01:43:43;57.85;;;36.33;;
50379;SDS011;37474;59.468;18.040;2022-08-19T01:46:31;63.17;;;38.50;;
50379;SDS011;37474;59.468;18.040;2022-08-19T01:49:03;60.13;;;37.63;;
50379;SDS011;37474;59.468;18.040;2022-08-19T01:51:34;60.83;;;36.88;;
50379;SDS011;37474;59.468;18.040;2022-08-19T01:54:09;56.15;;;37.00;;
50379;SDS011;37474;59.468;18.040;2022-08-19T01:56:54;52.30;;;34.25;;
50379;SDS011;37474;59.468;18.040;2022-08-19T01:59:27;51.67;;;33.10;;
50379;SDS011;37474;59.468;18.040;2022-08-19T02:01:57;51.70;;;33.78;;
50379;SDS011;37474;59.468;18.040;2022-08-19T02:04:25;49.20;;;32.65;;
50379;SDS011;37474;59.468;18.040;2022-08-19T02:06:56;51.38;;;33.58;;
50379;SDS011;37474;59.468;18.040;2022-08-19T02:09:29;46.92;;;32.78;;
50379;SDS011;37474;59.468;18.040;2022-08-19T02:11:58;43.28;;;31.92;;
50379;SDS011;37474;59.468;18.040;2022-08-19T02:14:26;46.70;;;31.80;;
50379;SDS011;37474;59.468;18.040;2022-08-19T02:16:56;41.88;;;28.15;;
50379;SDS011;37474;59.468;18.040;2022-08-19T02:19:26;39.63;;;29.67;;
50379;SDS011;37474;59.468;18.040;2022-08-19T02:21:54;37.50;;;27.70;;
50379;SDS011;37474;59.468;18.040;2022-08-19T02:24:22;43.05;;;30.30;;
50379;SDS011;37474;59.468;18.040;2022-08-19T02:26:53;48.55;;;31.00;;
50379;SDS011;37474;59.468;18.040;2022-08-19T02:29:21;40.85;;;28.55;;
50379;SDS011;37474;59.468;18.040;2022-08-19T02:31:49;39.65;;;29.00;;
50379;SDS011;37474;59.468;18.040;2022-08-19T02:34:21;40.72;;;28.75;;
50379;SDS011;37474;59.468;18.040;2022-08-19T02:36:51;35.75;;;27.48;;
50379;SDS011;37474;59.468;18.040;2022-08-19T02:39:19;40.38;;;28.27;;
50379;SDS011;37474;59.468;18.040;2022-08-19T02:41:50;40.55;;;28.88;;
50379;SDS011;37474;59.468;18.040;2022-08-19T02:44:19;40.92;;;28.95;;
50379;SDS011;37474;59.468;18.040;2022-08-19T02:46:59;37.25;;;27.77;;
50379;SDS011;37474;59.468;18.040;2022-08-19T02:49:31;39.80;;;29.20;;
50379;SDS011;37474;59.468;18.040;2022-08-19T02:52:02;33.92;;;26.48;;
50379;SDS011;37474;59.468;18.040;2022-08-19T02:54:33;40.05;;;28.40;;
50379;SDS011;37474;59.468;18.040;2022-08-19T02:57:03;38.38;;;27.17;;
50379;SDS011;37474;59.468;18.040;2022-08-19T02:59:36;38.85;;;28.85;;
50379;SDS011;37474;59.468;18.040;2022-08-19T03:02:04;38.72;;;26.92;;
50379;SDS011;37474;59.468;18.040;2022-08-19T03:04:34;36.55;;;26.30;;
50379;SDS011;37474;59.468;18.040;2022-08-19T03:07:02;33.55;;;25.38;;
50379;SDS011;37474;59.468;18.040;2022-08-19T03:09:38;37.38;;;26.88;;
50379;SDS011;37474;59.468;18.040;2022-08-19T03:12:11;34.67;;;25.75;;
50379;SDS011;37474;59.468;18.040;2022-08-19T03:14:39;35.60;;;26.40;;
50379;SDS011;37474;59.468;18.040;2022-08-19T03:17:07;35.75;;;24.55;;
50379;SDS011;37474;59.468;18.040;2022-08-19T03:19:37;33.45;;;25.42;;
50379;SDS011;37474;59.468;18.040;2022-08-19T03:22:07;39.00;;;26.77;;
50379;SDS011;37474;59.468;18.040;2022-08-19T03:24:35;36.63;;;26.48;;
50379;SDS011;37474;59.468;18.040;2022-08-19T03:27:08;35.38;;;25.17;;
50379;SDS011;37474;59.468;18.040;2022-08-19T03:29:37;36.65;;;28.25;;
50379;SDS011;37474;59.468;18.040;2022-08-19T03:32:11;34.65;;;25.23;;
50379;SDS011;37474;59.468;18.040;2022-08-19T03:34:58;35.03;;;26.42;;
50379;SDS011;37474;59.468;18.040;2022-08-19T03:37:28;37.00;;;25.83;;
50379;SDS011;37474;59.468;18.040;2022-08-19T03:39:58;39.00;;;27.05;;
50379;SDS011;37474;59.468;18.040;2022-08-19T03:42:28;35.67;;;24.38;;
50379;SDS011;37474;59.468;18.040;2022-08-19T03:45:15;39.20;;;26.83;;
50379;SDS011;37474;59.468;18.040;2022-08-19T03:47:47;38.67;;;27.02;;
50379;SDS011;37474;59.468;18.040;2022-08-19T03:50:15;38.10;;;25.73;;
50379;SDS011;37474;59.468;18.040;2022-08-19T03:52:47;32.92;;;25.13;;
50379;SDS011;37474;59.468;18.040;2022-08-19T03:55:19;33.97;;;26.13;;
50379;SDS011;37474;59.468;18.040;2022-08-19T03:57:47;36.42;;;26.42;;
50379;SDS011;37474;59.468;18.040;2022-08-19T04:00:18;33.92;;;24.70;;
50379;SDS011;37474;59.468;18.040;2022-08-19T04:02:48;34.83;;;26.33;;
50379;SDS011;37474;59.468;18.040;2022-08-19T04:05:28;39.83;;;27.27;;
50379;SDS011;37474;59.468;18.040;2022-08-19T04:07:58;42.78;;;28.10;;
50379;SDS011;37474;59.468;18.040;2022-08-19T04:10:26;34.33;;;25.85;;
50379;SDS011;37474;59.468;18.040;2022-08-19T04:12:57;35.95;;;25.38;;
50379;SDS011;37474;59.468;18.040;2022-08-19T04:15:28;35.28;;;25.27;;
50379;SDS011;37474;59.468;18.040;2022-08-19T04:20:27;37.33;;;26.20;;
50379;SDS011;37474;59.468;18.040;2022-08-19T04:22:57;36.55;;;25.55;;
50379;SDS011;37474;59.468;18.040;2022-08-19T04:25:25;31.23;;;24.73;;
50379;SDS011;37474;59.468;18.040;2022-08-19T04:27:55;29.08;;;23.20;;
50379;SDS011;37474;59.468;18.040;2022-08-19T04:30:25;30.45;;;23.30;;
50379;SDS011;37474;59.468;18.040;2022-08-19T04:32:54;28.10;;;22.33;;
50379;SDS011;37474;59.468;18.040;2022-08-19T04:35:24;29.90;;;23.10;;
50379;SDS011;37474;59.468;18.040;2022-08-19T04:37:54;35.75;;;25.45;;
50379;SDS011;37474;59.468;18.040;2022-08-19T04:40:22;29.65;;;23.25;;
50379;SDS011;37474;59.468;18.040;2022-08-19T04:43:11;33.00;;;23.27;;
50379;SDS011;37474;59.468;18.040;2022-08-19T04:45:40;31.67;;;23.48;;
50379;SDS011;37474;59.468;18.040;2022-08-19T04:48:11;34.22;;;24.50;;
50379;SDS011;37474;59.468;18.040;2022-08-19T04:50:55;31.42;;;22.60;;
50379;SDS011;37474;59.468;18.040;2022-08-19T04:53:25;35.08;;;24.02;;
50379;SDS011;37474;59.468;18.040;2022-08-19T04:56:06;29.75;;;22.05;;
50379;SDS011;37474;59.468;18.040;2022-08-19T04:58:36;34.13;;;23.70;;
50379;SDS011;37474;59.468;18.040;2022-08-19T05:01:11;33.47;;;23.77;;
50379;SDS011;37474;59.468;18.040;2022-08-19T05:03:41;35.10;;;24.45;;
50379;SDS011;37474;59.468;18.040;2022-08-19T05:06:13;32.20;;;23.05;;
50379;SDS011;37474;59.468;18.040;2022-08-19T05:08:43;29.45;;;21.35;;
50379;SDS011;37474;59.468;18.040;2022-08-19T05:11:12;31.83;;;21.35;;
50379;SDS011;37474;59.468;18.040;2022-08-19T05:13:50;32.20;;;22.33;;
50379;SDS011;37474;59.468;18.040;2022-08-19T05:16:20;28.02;;;21.63;;
50379;SDS011;37474;59.468;18.040;2022-08-19T05:18:54;27.92;;;20.08;;
50379;SDS011;37474;59.468;18.040;2022-08-19T05:21:40;31.90;;;21.50;;
50379;SDS011;37474;59.468;18.040;2022-08-19T05:24:27;32.00;;;22.33;;
50379;SDS011;37474;59.468;18.040;2022-08-19T05:26:57;29.95;;;21.85;;
50379;SDS011;37474;59.468;18.040;2022-08-19T05:29:26;29.88;;;21.48;;
50379;SDS011;37474;59.468;18.040;2022-08-19T05:32:04;33.47;;;22.85;;
50379;SDS011;37474;59.468;18.040;2022-08-19T05:34:36;31.63;;;22.35;;
50379;SDS011;37474;59.468;18.040;2022-08-19T05:37:07;29.02;;;21.23;;
50379;SDS011;37474;59.468;18.040;2022-08-19T05:39:36;31.13;;;21.20;;
50379;SDS011;37474;59.468;18.040;2022-08-19T05:42:09;26.73;;;21.38;;
50379;SDS011;37474;59.468;18.040;2022-08-19T05:44:40;30.55;;;22.35;;
50379;SDS011;37474;59.468;18.040;2022-08-19T05:47:13;30.80;;;21.63;;
50379;SDS011;37474;59.468;18.040;2022-08-19T05:49:42;29.17;;;21.10;;
50379;SDS011;37474;59.468;18.040;2022-08-19T05:52:15;30.75;;;22.08;;
50379;SDS011;37474;59.468;18.040;2022-08-19T05:54:44;32.97;;;22.00;;
50379;SDS011;37474;59.468;18.040;2022-08-19T05:57:18;32.60;;;22.30;;
50379;SDS011;37474;59.468;18.040;2022-08-19T05:59:50;30.33;;;21.45;;
50379;SDS011;37474;59.468;18.040;2022-08-19T06:02:24;27.83;;;19.90;;
50379;SDS011;37474;59.468;18.040;2022-08-19T06:04:57;28.75;;;20.05;;
50379;SDS011;37474;59.468;18.040;2022-08-19T06:07:26;25.27;;;19.50;;
50379;SDS011;37474;59.468;18.040;2022-08-19T06:09:55;28.38;;;18.70;;
50379;SDS011;37474;59.468;18.040;2022-08-19T06:12:29;25.02;;;18.60;;
50379;SDS011;37474;59.468;18.040;2022-08-19T06:15:05;28.05;;;18.92;;
50379;SDS011;37474;59.468;18.040;2022-08-19T06:17:38;27.75;;;18.75;;
50379;SDS011;37474;59.468;18.040;2022-08-19T06:20:10;26.13;;;18.98;;
50379;SDS011;37474;59.468;18.040;2022-08-19T06:22:44;22.48;;;17.88;;
50379;SDS011;37474;59.468;18.040;2022-08-19T06:25:16;22.92;;;17.95;;
50379;SDS011;37474;59.468;18.040;2022-08-19T06:27:46;23.60;;;16.42;;
50379;SDS011;37474;59.468;18.040;2022-08-19T06:30:46;20.50;;;15.68;;
50379;SDS011;37474;59.468;18.040;2022-08-19T06:33:29;21.77;;;14.98;;
50379;SDS011;37474;59.468;18.040;2022-08-19T06:36:13;20.38;;;15.45;;
50379;SDS011;37474;59.468;18.040;2022-08-19T06:38:44;21.73;;;15.98;;
50379;SDS011;37474;59.468;18.040;2022-08-19T06:41:14;21.95;;;14.77;;
50379;SDS011;37474;59.468;18.040;2022-08-19T06:43:42;21.60;;;13.45;;
50379;SDS011;37474;59.468;18.040;2022-08-19T06:48:43;18.85;;;12.40;;
50379;SDS011;37474;59.468;18.040;2022-08-19T06:51:13;14.57;;;12.15;;
50379;SDS011;37474;59.468;18.040;2022-08-19T06:53:49;13.77;;;11.45;;
50379;SDS011;37474;59.468;18.040;2022-08-19T06:56:19;17.15;;;12.00;;
50379;SDS011;37474;59.468;18.040;2022-08-19T06:58:53;13.20;;;11.35;;
50379;SDS011;37474;59.468;18.040;2022-08-19T07:01:20;18.13;;;11.93;;
50379;SDS011;37474;59.468;18.040;2022-08-19T07:03:48;16.15;;;11.35;;
50379;SDS011;37474;59.468;18.040;2022-08-19T07:06:20;15.90;;;10.90;;
50379;SDS011;37474;59.468;18.040;2022-08-19T07:09:08;14.63;;;10.23;;
50379;SDS011;37474;59.468;18.040;2022-08-19T07:11:43;13.77;;;10.45;;
50379;SDS011;37474;59.468;18.040;2022-08-19T07:14:11;13.50;;;10.23;;
50379;SDS011;37474;59.468;18.040;2022-08-19T07:16:45;17.95;;;10.43;;
50379;SDS011;37474;59.468;18.040;2022-08-19T07:19:13;12.00;;;9.63;;
50379;SDS011;37474;59.468;18.040;2022-08-19T07:21:46;12.48;;;9.45;;
50379;SDS011;37474;59.468;18.040;2022-08-19T07:24:17;13.40;;;9.07;;
50379;SDS011;37474;59.468;18.040;2022-08-19T07:26:46;14.30;;;9.52;;
50379;SDS011;37474;59.468;18.040;2022-08-19T07:29:19;13.60;;;9.27;;
50379;SDS011;37474;59.468;18.040;2022-08-19T07:31:54;13.68;;;9.52;;
50379;SDS011;37474;59.468;18.040;2022-08-19T07:34:26;13.93;;;9.23;;
50379;SDS011;37474;59.468;18.040;2022-08-19T07:36:56;15.18;;;9.30;;
50379;SDS011;37474;59.468;18.040;2022-08-19T07:39:26;13.77;;;8.68;;
50379;SDS011;37474;59.468;18.040;2022-08-19T07:41:59;16.05;;;9.02;;
50379;SDS011;37474;59.468;18.040;2022-08-19T07:44:29;13.48;;;8.95;;
50379;SDS011;37474;59.468;18.040;2022-08-19T07:47:00;13.60;;;8.50;;
50379;SDS011;37474;59.468;18.040;2022-08-19T07:49:30;14.10;;;8.23;;
50379;SDS011;37474;59.468;18.040;2022-08-19T07:52:01;12.63;;;7.95;;
50379;SDS011;37474;59.468;18.040;2022-08-19T07:54:33;12.48;;;7.30;;
50379;SDS011;37474;59.468;18.040;2022-08-19T07:57:02;10.63;;;7.68;;
50379;SDS011;37474;59.468;18.040;2022-08-19T07:59:33;12.23;;;7.72;;
50379;SDS011;37474;59.468;18.040;2022-08-19T08:02:01;13.48;;;7.15;;
50379;SDS011;37474;59.468;18.040;2022-08-19T08:04:30;13.47;;;6.93;;
50379;SDS011;37474;59.468;18.040;2022-08-19T08:07:21;13.90;;;6.97;;
50379;SDS011;37474;59.468;18.040;2022-08-19T08:10:11;16.60;;;6.70;;
50379;SDS011;37474;59.468;18.040;2022-08-19T08:12:48;12.65;;;6.60;;
50379;SDS011;37474;59.468;18.040;2022-08-19T08:15:36;16.00;;;6.28;;
50379;SDS011;37474;59.468;18.040;2022-08-19T08:18:11;17.95;;;6.43;;
50379;SDS011;37474;59.468;18.040;2022-08-19T08:20:39;13.50;;;6.07;;
50379;SDS011;37474;59.468;18.040;2022-08-19T08:23:09;12.70;;;5.93;;
50379;SDS011;37474;59.468;18.040;2022-08-19T08:25:53;12.32;;;6.05;;
50379;SDS011;37474;59.468;18.040;2022-08-19T08:28:23;14.57;;;5.85;;
50379;SDS011;37474;59.468;18.040;2022-08-19T08:30:55;13.43;;;5.90;;
50379;SDS011;37474;59.468;18.040;2022-08-19T08:33:25;13.20;;;6.10;;
50379;SDS011;37474;59.468;18.040;2022-08-19T08:36:03;12.27;;;5.60;;
50379;SDS011;37474;59.468;18.040;2022-08-19T08:38:33;13.27;;;6.13;;
50379;SDS011;37474;59.468;18.040;2022-08-19T08:41:09;13.00;;;6.37;;
50379;SDS011;37474;59.468;18.040;2022-08-19T08:43:48;12.55;;;6.32;;
50379;SDS011;37474;59.468;18.040;2022-08-19T08:46:21;12.38;;;5.88;;
50379;SDS011;37474;59.468;18.040;2022-08-19T08:48:59;10.03;;;5.90;;
50379;SDS011;37474;59.468;18.040;2022-08-19T08:51:39;12.70;;;5.88;;
50379;SDS011;37474;59.468;18.040;2022-08-19T08:54:14;11.13;;;5.90;;
50379;SDS011;37474;59.468;18.040;2022-08-19T08:56:46;9.93;;;5.65;;
50379;SDS011;37474;59.468;18.040;2022-08-19T08:59:20;10.55;;;6.05;;
50379;SDS011;37474;59.468;18.040;2022-08-19T09:01:51;10.55;;;6.10;;
50379;SDS011;37474;59.468;18.040;2022-08-19T09:04:19;11.65;;;5.90;;
50379;SDS011;37474;59.468;18.040;2022-08-19T09:06:50;10.23;;;5.72;;
50379;SDS011;37474;59.468;18.040;2022-08-19T09:09:29;11.67;;;5.73;;
50379;SDS011;37474;59.468;18.040;2022-08-19T09:12:04;14.15;;;5.93;;
50379;SDS011;37474;59.468;18.040;2022-08-19T09:14:40;11.95;;;5.50;;
50379;SDS011;37474;59.468;18.040;2022-08-19T09:17:17;10.50;;;5.40;;
50379;SDS011;37474;59.468;18.040;2022-08-19T09:19:49;13.32;;;5.88;;
50379;SDS011;37474;59.468;18.040;2022-08-19T09:22:18;11.90;;;5.78;;
50379;SDS011;37474;59.468;18.040;2022-08-19T09:24:55;11.65;;;5.25;;
50379;SDS011;37474;59.468;18.040;2022-08-19T09:32:39;7.05;;;4.57;;
50379;SDS011;37474;59.468;18.040;2022-08-19T09:35:09;13.98;;;5.68;;
50379;SDS011;37474;59.468;18.040;2022-08-19T09:37:37;9.23;;;4.75;;
50379;SDS011;37474;59.468;18.040;2022-08-19T09:40:10;12.10;;;4.82;;
50379;SDS011;37474;59.468;18.040;2022-08-19T09:42:40;11.75;;;4.95;;
50379;SDS011;37474;59.468;18.040;2022-08-19T09:45:20;9.45;;;5.20;;
50379;SDS011;37474;59.468;18.040;2022-08-19T09:47:49;9.88;;;4.53;;
50379;SDS011;37474;59.468;18.040;2022-08-19T09:50:23;10.95;;;4.65;;
50379;SDS011;37474;59.468;18.040;2022-08-19T09:52:51;14.52;;;4.97;;
50379;SDS011;37474;59.468;18.040;2022-08-19T09:55:25;7.40;;;4.50;;
50379;SDS011;37474;59.468;18.040;2022-08-19T09:57:58;11.32;;;4.65;;
50379;SDS011;37474;59.468;18.040;2022-08-19T10:00:27;10.00;;;4.85;;
50379;SDS011;37474;59.468;18.040;2022-08-19T10:05:26;8.82;;;4.65;;
50379;SDS011;37474;59.468;18.040;2022-08-19T10:08:26;11.15;;;4.80;;
50379;SDS011;37474;59.468;18.040;2022-08-19T10:10:57;7.63;;;4.78;;
50379;SDS011;37474;59.468;18.040;2022-08-19T10:13:50;11.32;;;4.82;;
50379;SDS011;37474;59.468;18.040;2022-08-19T10:16:19;10.00;;;4.65;;
50379;SDS011;37474;59.468;18.040;2022-08-19T10:18:57;6.80;;;4.05;;
50379;SDS011;37474;59.468;18.040;2022-08-19T10:21:31;9.73;;;4.65;;
50379;SDS011;37474;59.468;18.040;2022-08-19T10:24:05;10.63;;;4.38;;
50379;SDS011;37474;59.468;18.040;2022-08-19T10:26:36;12.07;;;4.55;;
50379;SDS011;37474;59.468;18.040;2022-08-19T10:29:08;10.52;;;4.53;;
50379;SDS011;37474;59.468;18.040;2022-08-19T10:34:28;12.80;;;4.88;;
50379;SDS011;37474;59.468;18.040;2022-08-19T10:36:58;10.85;;;4.80;;
50379;SDS011;37474;59.468;18.040;2022-08-19T10:39:28;10.73;;;4.47;;
50379;SDS011;37474;59.468;18.040;2022-08-19T10:42:07;12.57;;;4.78;;
50379;SDS011;37474;59.468;18.040;2022-08-19T10:44:40;11.10;;;4.63;;
50379;SDS011;37474;59.468;18.040;2022-08-19T10:47:08;9.50;;;4.20;;
50379;SDS011;37474;59.468;18.040;2022-08-19T10:49:50;13.95;;;4.53;;
50379;SDS011;37474;59.468;18.040;2022-08-19T10:52:37;8.30;;;4.47;;
50379;SDS011;37474;59.468;18.040;2022-08-19T10:55:16;18.45;;;5.07;;
50379;SDS011;37474;59.468;18.040;2022-08-19T10:58:00;11.27;;;4.55;;
50379;SDS011;37474;59.468;18.040;2022-08-19T11:00:28;11.48;;;4.45;;
50379;SDS011;37474;59.468;18.040;2022-08-19T11:02:57;8.00;;;4.38;;
50379;SDS011;37474;59.468;18.040;2022-08-19T11:05:25;12.63;;;4.90;;
50379;SDS011;37474;59.468;18.040;2022-08-19T11:07:56;10.73;;;4.77;;
50379;SDS011;37474;59.468;18.040;2022-08-19T11:10:28;10.23;;;4.70;;
50379;SDS011;37474;59.468;18.040;2022-08-19T11:12:56;7.15;;;4.63;;
50379;SDS011;37474;59.468;18.040;2022-08-19T11:15:25;9.52;;;4.53;;
50379;SDS011;37474;59.468;18.040;2022-08-19T11:17:54;10.40;;;4.70;;
50379;SDS011;37474;59.468;18.040;2022-08-19T11:20:23;10.18;;;4.47;;
50379;SDS011;37474;59.468;18.040;2022-08-19T11:22:53;10.10;;;4.50;;
50379;SDS011;37474;59.468;18.040;2022-08-19T11:25:21;8.45;;;4.50;;
50379;SDS011;37474;59.468;18.040;2022-08-19T11:30:21;10.57;;;4.85;;
50379;SDS011;37474;59.468;18.040;2022-08-19T11:32:50;9.90;;;4.18;;
50379;SDS011;37474;59.468;18.040;2022-08-19T11:35:18;9.05;;;4.13;;
50379;SDS011;37474;59.468;18.040;2022-08-19T11:37:47;7.88;;;3.95;;
50379;SDS011;37474;59.468;18.040;2022-08-19T11:40:15;8.57;;;4.35;;
50379;SDS011;37474;59.468;18.040;2022-08-19T11:42:45;7.15;;;3.97;;
50379;SDS011;37474;59.468;18.040;2022-08-19T11:45:25;7.90;;;4.35;;
50379;SDS011;37474;59.468;18.040;2022-08-19T11:47:58;12.85;;;4.75;;
50379;SDS011;37474;59.468;18.040;2022-08-19T11:50:27;10.18;;;4.22;;
50379;SDS011;37474;59.468;18.040;2022-08-19T11:52:55;6.40;;;4.30;;
50379;SDS011;37474;59.468;18.040;2022-08-19T11:55:23;12.27;;;4.22;;
50379;SDS011;37474;59.468;18.040;2022-08-19T11:57:53;10.32;;;4.28;;
50379;SDS011;37474;59.468;18.040;2022-08-19T12:00:21;7.40;;;4.32;;
50379;SDS011;37474;59.468;18.040;2022-08-19T12:02:51;9.85;;;4.70;;
50379;SDS011;37474;59.468;18.040;2022-08-19T12:05:22;12.68;;;4.30;;
50379;SDS011;37474;59.468;18.040;2022-08-19T12:07:50;12.52;;;4.22;;
50379;SDS011;37474;59.468;18.040;2022-08-19T12:10:20;11.60;;;4.50;;
50379;SDS011;37474;59.468;18.040;2022-08-19T12:12:53;5.97;;;3.97;;
50379;SDS011;37474;59.468;18.040;2022-08-19T12:15:24;12.35;;;4.45;;
50379;SDS011;37474;59.468;18.040;2022-08-19T12:18:04;10.73;;;4.57;;
50379;SDS011;37474;59.468;18.040;2022-08-19T12:20:36;8.30;;;4.57;;
50379;SDS011;37474;59.468;18.040;2022-08-19T12:23:07;10.32;;;4.60;;
50379;SDS011;37474;59.468;18.040;2022-08-19T12:25:36;7.88;;;4.30;;
50379;SDS011;37474;59.468;18.040;2022-08-19T12:28:05;9.57;;;4.40;;
50379;SDS011;37474;59.468;18.040;2022-08-19T12:30:33;5.47;;;4.22;;
50379;SDS011;37474;59.468;18.040;2022-08-19T12:33:04;8.52;;;4.20;;
50379;SDS011;37474;59.468;18.040;2022-08-19T12:35:38;9.10;;;3.90;;
50379;SDS011;37474;59.468;18.040;2022-08-19T12:38:11;8.68;;;4.40;;
50379;SDS011;37474;59.468;18.040;2022-08-19T12:40:39;11.90;;;4.45;;
50379;SDS011;37474;59.468;18.040;2022-08-19T12:43:07;8.80;;;4.28;;
50379;SDS011;37474;59.468;18.040;2022-08-19T12:45:39;7.95;;;4.35;;
50379;SDS011;37474;59.468;18.040;2022-08-19T12:48:09;10.40;;;4.95;;
50379;SDS011;37474;59.468;18.040;2022-08-19T12:50:59;8.88;;;4.28;;
50379;SDS011;37474;59.468;18.040;2022-08-19T12:53:30;7.22;;;4.55;;
50379;SDS011;37474;59.468;18.040;2022-08-19T12:55:59;6.68;;;4.25;;
50379;SDS011;37474;59.468;18.040;2022-08-19T12:58:28;10.52;;;4.65;;
50379;SDS011;37474;59.468;18.040;2022-08-19T13:00:59;9.13;;;4.50;;
50379;SDS011;37474;59.468;18.040;2022-08-19T13:03:27;11.98;;;4.78;;
50379;SDS011;37474;59.468;18.040;2022-08-19T13:05:55;8.68;;;4.50;;
50379;SDS011;37474;59.468;18.040;2022-08-19T13:08:25;11.43;;;4.43;;
50379;SDS011;37474;59.468;18.040;2022-08-19T13:10:53;7.10;;;4.00;;
50379;SDS011;37474;59.468;18.040;2022-08-19T13:13:21;8.38;;;3.95;;
50379;SDS011;37474;59.468;18.040;2022-08-19T13:15:59;11.00;;;4.28;;
50379;SDS011;37474;59.468;18.040;2022-08-19T13:18:31;13.48;;;4.45;;
50379;SDS011;37474;59.468;18.040;2022-08-19T13:21:01;10.63;;;4.60;;
50379;SDS011;37474;59.468;18.040;2022-08-19T13:23:32;13.75;;;4.50;;
50379;SDS011;37474;59.468;18.040;2022-08-19T13:26:05;8.07;;;4.03;;
50379;SDS011;37474;59.468;18.040;2022-08-19T13:31:22;10.65;;;4.05;;
50379;SDS011;37474;59.468;18.040;2022-08-19T13:34:11;11.73;;;4.40;;
50379;SDS011;37474;59.468;18.040;2022-08-19T13:36:41;8.77;;;4.55;;
50379;SDS011;37474;59.468;18.040;2022-08-19T13:39:11;10.07;;;4.25;;
50379;SDS011;37474;59.468;18.040;2022-08-19T13:41:42;6.70;;;4.10;;
50379;SDS011;37474;59.468;18.040;2022-08-19T13:44:16;8.80;;;4.35;;
50379;SDS011;37474;59.468;18.040;2022-08-19T13:46:47;12.35;;;5.03;;
50379;SDS011;37474;59.468;18.040;2022-08-19T13:49:19;9.38;;;5.15;;
50379;SDS011;37474;59.468;18.040;2022-08-19T13:51:49;11.63;;;4.40;;
50379;SDS011;37474;59.468;18.040;2022-08-19T13:54:19;8.73;;;4.10;;
50379;SDS011;37474;59.468;18.040;2022-08-19T13:56:50;10.45;;;4.53;;
50379;SDS011;37474;59.468;18.040;2022-08-19T13:59:18;9.68;;;4.68;;
50379;SDS011;37474;59.468;18.040;2022-08-19T14:01:46;12.65;;;4.60;;
50379;SDS011;37474;59.468;18.040;2022-08-19T14:04:18;8.70;;;4.70;;
50379;SDS011;37474;59.468;18.040;2022-08-19T14:06:45;11.00;;;5.00;;
50379;SDS011;37474;59.468;18.040;2022-08-19T14:09:13;12.02;;;4.70;;
50379;SDS011;37474;59.468;18.040;2022-08-19T14:11:44;11.63;;;4.65;;
50379;SDS011;37474;59.468;18.040;2022-08-19T14:16:41;9.15;;;4.25;;
50379;SDS011;37474;59.468;18.040;2022-08-19T14:19:09;9.77;;;4.28;;
50379;SDS011;37474;59.468;18.040;2022-08-19T14:21:37;9.30;;;4.40;;
50379;SDS011;37474;59.468;18.040;2022-08-19T14:24:07;10.77;;;4.20;;
50379;SDS011;37474;59.468;18.040;2022-08-19T14:26:39;9.27;;;4.50;;
50379;SDS011;37474;59.468;18.040;2022-08-19T14:29:08;11.70;;;4.57;;
50379;SDS011;37474;59.468;18.040;2022-08-19T14:31:36;8.30;;;4.55;;
50379;SDS011;37474;59.468;18.040;2022-08-19T14:34:08;9.35;;;4.25;;
50379;SDS011;37474;59.468;18.040;2022-08-19T14:36:36;10.50;;;4.22;;
50379;SDS011;37474;59.468;18.040;2022-08-19T14:39:04;10.93;;;4.57;;
50379;SDS011;37474;59.468;18.040;2022-08-19T14:41:32;10.88;;;4.63;;
50379;SDS011;37474;59.468;18.040;2022-08-19T14:44:00;9.27;;;4.47;;
50379;SDS011;37474;59.468;18.040;2022-08-19T14:46:29;15.50;;;4.53;;
50379;SDS011;37474;59.468;18.040;2022-08-19T14:48:57;11.38;;;4.45;;
50379;SDS011;37474;59.468;18.040;2022-08-19T14:51:26;13.95;;;4.53;;
50379;SDS011;37474;59.468;18.040;2022-08-19T14:53:54;9.48;;;5.00;;
50379;SDS011;37474;59.468;18.040;2022-08-19T14:56:24;11.57;;;4.25;;
50379;SDS011;37474;59.468;18.040;2022-08-19T14:58:54;12.25;;;4.60;;
50379;SDS011;37474;59.468;18.040;2022-08-19T15:01:25;9.85;;;4.45;;
50379;SDS011;37474;59.468;18.040;2022-08-19T15:03:55;13.18;;;4.28;;
50379;SDS011;37474;59.468;18.040;2022-08-19T15:06:24;9.27;;;4.30;;
50379;SDS011;37474;59.468;18.040;2022-08-19T15:08:52;8.52;;;4.22;;
50379;SDS011;37474;59.468;18.040;2022-08-19T15:11:23;6.93;;;4.20;;
50379;SDS011;37474;59.468;18.040;2022-08-19T15:13:54;15.02;;;4.43;;